Terminal Aerodrome Forecast
Issued by NWS

Home | Current Version | Previous Version | Text Only | Print | Product List | Glossary On
Versions: 1 2 3 4 5 6 7 8 9 10 11 12 13 14 15 16 17
000
FTAK31 PAJN 222300
TAFAYA
TAF
PAYA 222335Z 2300/2324 VRB04KT P6SM SCT012 SCT025 OVC150
     FM230400 VRB03KT P6SM BCFG SCT008 BKN015 OVC080
     FM230900 00000KT 6SM BR SCT005 BKN080
      TEMPO 2310/2314 2SM BR BKN008
     FM231600 VRB03KT P6SM SCT010 SCT080
     FM231900 25005KT P6SM SCT060 SCT150
      AMD LTD TO CLD VIS AND WIND 2301/2310=

USA.gov is the U.S. government's official web portal to all federal, state and local government web resources and services.